Time;durP1;ratioP1;P1;durP2;ratioP2;P2;SDS_P1;SDS_P2;PMS_P1;PMS_P2;Temp;Humidity;BMP_temperature;BMP_pressure;BME280_temperature;BME280_humidity;BME280_pressure;Samples;Min_cycle;Max_cycle;Signal;HPM_P1;HPM_P2
2022/04/23 00:01:42;544581.00;1.82;938.62;11498.00;0.04;20.54;;;;;16.10;1.00;;;;;;2280919;60;1609;-85
2022/04/23 00:04:09;474738.00;1.58;818.34;9951.00;0.03;17.86;;;;;16.10;1.00;;;;;;2280923;60;1942;-85
2022/04/23 00:06:37;404990.00;1.35;698.38;0.00;0.00;0.62;;;;;15.90;1.00;;;;;;2280637;60;1159;-85
2022/04/23 00:09:05;141595.00;0.47;245.32;0.00;0.00;0.62;;;;;16.10;1.00;;;;;;2280720;60;1358;-85
2022/04/23 00:11:34;356830.00;1.19;615.60;0.00;0.00;0.62;;;;;15.90;1.00;;;;;;2280678;60;1432;-85
2022/04/23 00:14:04;104199.00;0.35;180.82;0.00;0.00;0.62;;;;;15.90;1.00;;;;;;2280919;60;1653;-86
2022/04/23 00:16:31;0.00;0.00;0.62;0.00;0.00;0.62;;;;;16.10;1.00;;;;;;2280938;60;1018;-85
2022/04/23 00:18:59;5557.00;0.02;10.25;0.00;0.00;0.62;;;;;16.40;1.00;;;;;;2280722;60;1391;-84
2022/04/23 00:21:26;76632.00;0.26;133.22;0.00;0.00;0.62;;;;;16.30;1.00;;;;;;2280807;60;1026;-85
2022/04/23 00:23:53;131672.00;0.44;228.21;0.00;0.00;0.62;;;;;16.30;1.00;;;;;;2280578;61;2017;-85
2022/04/23 00:26:20;0.00;0.00;0.62;0.00;0.00;0.62;;;;;16.30;1.00;;;;;;2280692;61;1103;-85
2022/04/23 00:28:46;108092.00;0.36;187.54;0.00;0.00;0.62;;;;;16.40;1.00;;;;;;2280677;60;1364;-84
2022/04/23 00:31:15;21258.00;0.07;37.45;0.00;0.00;0.62;;;;;16.20;1.00;;;;;;2279765;61;1131;-84
2022/04/23 00:33:42;31459.00;0.10;55.11;0.00;0.00;0.62;;;;;15.90;1.00;;;;;;2280727;61;1190;-85
2022/04/23 00:36:10;42815.00;0.14;74.76;0.00;0.00;0.62;;;;;15.40;1.00;;;;;;2280727;60;1108;-85
2022/04/23 00:38:38;40454.00;0.13;70.67;0.00;0.00;0.62;;;;;15.70;1.00;;;;;;2280721;60;1043;-85
2022/04/23 00:41:05;144029.00;0.48;249.52;32489.00;0.11;56.89;;;;;15.80;1.00;;;;;;2280418;60;1198;-84
2022/04/23 00:43:34;67536.00;0.23;117.50;0.00;0.00;0.62;;;;;15.70;1.00;;;;;;2280767;60;1992;-85
2022/04/23 00:46:03;103997.00;0.35;180.47;0.00;0.00;0.62;;;;;15.70;1.00;;;;;;2280623;60;1058;-84
2022/04/23 00:48:32;157522.00;0.53;272.77;0.00;0.00;0.62;;;;;15.80;1.00;;;;;;2280171;61;911;-84
2022/04/23 00:51:01;108516.00;0.36;188.27;0.00;0.00;0.62;;;;;15.70;1.00;;;;;;2280325;61;1313;-84
2022/04/23 00:53:29;0.00;0.00;0.62;0.00;0.00;0.62;;;;;15.90;1.00;;;;;;2280343;61;1111;-84
2022/04/23 00:55:57;9209.00;0.03;16.58;0.00;0.00;0.62;;;;;15.90;1.00;;;;;;2280335;61;2195;-84
2022/04/23 00:58:26;34858.00;0.12;60.99;0.00;0.00;0.62;;;;;15.90;1.00;;;;;;2280418;61;1080;-84
2022/04/23 01:00:53;121221.00;0.40;210.19;0.00;0.00;0.62;;;;;16.00;1.00;;;;;;2279833;61;1376;-84
2022/04/23 01:03:21;103835.00;0.35;180.19;0.00;0.00;0.62;;;;;16.00;1.00;;;;;;2280535;61;1923;-83
2022/04/23 01:05:49;19089.00;0.06;33.69;0.00;0.00;0.62;;;;;15.90;1.00;;;;;;2280088;61;1197;-83
2022/04/23 01:08:18;56947.00;0.19;99.20;0.00;0.00;0.62;;;;;15.80;1.00;;;;;;2279337;61;1065;-84
2022/04/23 01:10:45;170429.00;0.57;295.01;0.00;0.00;0.62;;;;;15.10;1.00;;;;;;2279681;61;1393;-83
2022/04/23 01:13:14;233146.00;0.78;402.96;100634.00;0.34;174.67;;;;;14.30;1.00;;;;;;2279827;61;1125;-85
2022/04/23 01:15:43;62714.00;0.21;109.17;0.00;0.00;0.62;;;;;13.70;1.00;;;;;;2280355;61;1105;-85
2022/04/23 01:18:10;105475.00;0.35;183.02;0.00;0.00;0.62;;;;;13.80;1.00;;;;;;2280336;60;1547;-85
2022/04/23 01:20:38;29334.00;0.10;51.43;0.00;0.00;0.62;;;;;14.00;1.00;;;;;;2280253;60;1375;-85
2022/04/23 01:23:06;28983.00;0.10;50.82;0.00;0.00;0.62;;;;;13.90;1.00;;;;;;2280539;60;1919;-84
2022/04/23 01:25:33;211657.00;0.71;365.99;33433.00;0.11;58.52;;;;;14.00;1.00;;;;;;2280470;60;1456;-85
2022/04/23 01:28:02;71998.00;0.24;125.21;0.00;0.00;0.62;;;;;14.30;1.00;;;;;;2280614;60;1024;-84
2022/04/23 01:30:29;0.00;0.00;0.62;0.00;0.00;0.62;;;;;14.50;1.00;;;;;;2280547;60;1386;-85
2022/04/23 01:32:56;51748.00;0.17;90.21;0.00;0.00;0.62;;;;;14.60;1.00;;;;;;2280426;60;1533;-85
2022/04/23 01:35:23;13418.00;0.04;23.87;0.00;0.00;0.62;;;;;14.60;1.00;;;;;;2280636;60;1120;-86
2022/04/23 01:37:52;0.00;0.00;0.62;0.00;0.00;0.62;;;;;14.60;1.00;;;;;;2280611;60;1557;-84
2022/04/23 01:40:21;88578.00;0.30;153.85;12744.00;0.04;22.70;;;;;14.60;1.00;;;;;;2280460;60;1382;-84
2022/04/23 01:42:48;101150.00;0.34;175.56;0.00;0.00;0.62;;;;;14.60;1.00;;;;;;2280411;60;2016;-83
2022/04/23 01:45:15;34625.00;0.12;60.59;0.00;0.00;0.62;;;;;14.70;1.00;;;;;;2280626;60;1443;-83
2022/04/23 01:47:42;199180.00;0.66;344.51;0.00;0.00;0.62;;;;;14.70;1.00;;;;;;2280582;60;1060;-82
2022/04/23 01:50:09;48485.00;0.16;84.57;0.00;0.00;0.62;;;;;14.90;1.00;;;;;;2280362;60;1347;-85
2022/04/23 01:52:36;21449.00;0.07;37.78;0.00;0.00;0.62;;;;;14.60;1.00;;;;;;2280481;60;1072;-82
2022/04/23 01:55:06;0.00;0.00;0.62;0.00;0.00;0.62;;;;;14.60;1.00;;;;;;2280590;60;1171;-86
2022/04/23 01:57:32;0.00;0.00;0.62;0.00;0.00;0.62;;;;;14.30;1.00;;;;;;2280310;60;951;-83
2022/04/23 01:59:59;5010.00;0.02;9.30;0.00;0.00;0.62;;;;;14.20;1.00;;;;;;2280716;60;1386;-85
2022/04/23 02:02:26;0.00;0.00;0.62;0.00;0.00;0.62;;;;;14.40;1.00;;;;;;2280685;60;2000;-85
2022/04/23 02:04:53;198629.00;0.66;343.56;60327.00;0.20;105.04;;;;;14.80;1.00;;;;;;2280592;60;1107;-85
2022/04/23 02:07:20;72182.00;0.24;125.53;0.00;0.00;0.62;;;;;14.70;1.00;;;;;;2280505;60;2138;-84
2022/04/23 02:09:47;31393.00;0.10;54.99;0.00;0.00;0.62;;;;;14.60;1.00;;;;;;2280477;60;1565;-85
2022/04/23 02:12:15;62798.00;0.21;109.31;0.00;0.00;0.62;;;;;14.90;1.00;;;;;;2280591;60;1143;-85
2022/04/23 02:14:42;0.00;0.00;0.62;0.00;0.00;0.62;;;;;15.10;1.00;;;;;;2280530;60;1416;-84
2022/04/23 02:17:09;207900.00;0.69;359.52;1499.00;0.00;3.22;;;;;15.60;1.00;;;;;;2280551;60;1070;-85
2022/04/23 02:19:36;94416.00;0.31;163.93;9585.00;0.03;17.23;;;;;15.70;1.00;;;;;;2280568;60;1381;-85
2022/04/23 02:22:04;227262.00;0.76;392.84;0.00;0.00;0.62;;;;;15.30;1.00;;;;;;2280560;60;991;-85
2022/04/23 02:24:31;0.00;0.00;0.62;0.00;0.00;0.62;;;;;15.50;1.00;;;;;;2280530;60;1920;-84
2022/04/23 02:26:58;90127.00;0.30;156.53;0.00;0.00;0.62;;;;;15.50;1.00;;;;;;2280523;60;1065;-85
2022/04/23 02:29:26;9504.00;0.03;17.09;0.00;0.00;0.62;;;;;15.60;1.00;;;;;;2280605;60;1310;-84
2022/04/23 02:31:53;253946.00;0.85;438.74;0.00;0.00;0.62;;;;;15.50;1.00;;;;;;2280386;60;1444;-83
2022/04/23 02:34:21;75682.00;0.25;131.58;0.00;0.00;0.62;;;;;15.50;1.00;;;;;;2280438;60;1075;-84
2022/04/23 02:36:48;0.00;0.00;0.62;0.00;0.00;0.62;;;;;15.50;1.00;;;;;;2280487;61;1063;-84
2022/04/23 02:39:15;104040.00;0.35;180.54;0.00;0.00;0.62;;;;;15.70;1.00;;;;;;2280457;60;1395;-84
2022/04/23 02:41:41;86231.00;0.29;149.80;0.00;0.00;0.62;;;;;15.50;1.00;;;;;;2280333;60;1600;-84
2022/04/23 02:44:08;12313.00;0.04;21.96;0.00;0.00;0.62;;;;;15.50;1.00;;;;;;2280360;60;1923;-84
2022/04/23 02:46:38;49392.00;0.16;86.13;0.00;0.00;0.62;;;;;15.50;1.00;;;;;;2280456;60;1121;-84
2022/04/23 02:49:05;98169.00;0.33;170.41;0.00;0.00;0.62;;;;;15.30;1.00;;;;;;2280491;60;1403;-85
2022/04/23 02:51:33;158465.00;0.53;274.39;0.00;0.00;0.62;;;;;14.90;1.00;;;;;;2280426;60;1470;-85
2022/04/23 02:54:00;0.00;0.00;0.62;0.00;0.00;0.62;;;;;14.80;1.00;;;;;;2280409;60;1174;-84
2022/04/23 02:56:28;83225.00;0.28;144.61;0.00;0.00;0.62;;;;;15.20;1.00;;;;;;2280418;60;1293;-83
2022/04/23 02:58:55;21742.00;0.07;38.29;0.00;0.00;0.62;;;;;15.30;1.00;;;;;;2280397;60;1340;-85
2022/04/23 03:01:22;0.00;0.00;0.62;0.00;0.00;0.62;;;;;15.20;1.00;;;;;;2280440;60;1186;-85
2022/04/23 03:03:54;103618.00;0.35;179.82;0.00;0.00;0.62;;;;;15.30;1.00;;;;;;2280380;60;2002;-85
2022/04/23 03:06:22;69141.00;0.23;120.28;0.00;0.00;0.62;;;;;15.10;1.00;;;;;;2280438;60;1212;-84
2022/04/23 03:08:49;36338.00;0.12;63.55;0.00;0.00;0.62;;;;;14.80;1.00;;;;;;2280338;60;1363;-85
2022/04/23 03:11:16;597633.00;1.99;1030.13;109686.00;0.37;190.29;;;;;14.70;1.00;;;;;;2280323;60;1137;-86
2022/04/23 03:13:43;402533.00;1.34;694.16;0.00;0.00;0.62;;;;;14.40;1.00;;;;;;2280351;60;1146;-85
2022/04/23 03:16:10;477523.00;1.59;823.13;0.00;0.00;0.62;;;;;14.40;1.00;;;;;;2280369;60;1100;-85
2022/04/23 03:18:37;276275.00;0.92;477.13;19940.00;0.07;35.17;;;;;14.40;1.00;;;;;;2281038;60;1059;-85
2022/04/23 03:21:05;425130.00;1.42;733.01;0.00;0.00;0.62;;;;;14.50;1.00;;;;;;2281058;60;1378;-85
2022/04/23 03:23:32;200457.00;0.67;346.71;0.00;0.00;0.62;;;;;14.10;1.00;;;;;;2281068;60;1923;-85
2022/04/23 03:26:01;499261.00;1.66;860.55;51622.00;0.17;89.99;;;;;13.80;1.00;;;;;;2281067;60;1732;-84
2022/04/23 03:28:28;575720.00;1.92;992.31;21871.00;0.07;38.51;;;;;14.00;1.00;;;;;;2281031;60;1461;-85
2022/04/23 03:30:55;302182.00;1.01;521.67;15614.00;0.05;27.67;;;;;14.10;1.00;;;;;;2281070;60;1584;-85
2022/04/23 03:33:22;188683.00;0.63;326.44;6044.00;0.02;11.09;;;;;14.00;1.00;;;;;;2281008;60;1122;-86
2022/04/23 03:35:49;409852.00;1.37;706.74;0.00;0.00;0.62;;;;;14.00;1.00;;;;;;2281159;60;1121;-85
2022/04/23 03:38:18;206053.00;0.69;356.34;0.00;0.00;0.62;;;;;14.00;1.00;;;;;;2281062;60;1103;-85
2022/04/23 03:40:45;500547.00;1.67;862.77;37850.00;0.13;66.17;;;;;14.00;1.00;;;;;;2280739;60;1456;-84
2022/04/23 03:43:13;397572.00;1.33;685.63;16725.00;0.06;29.60;;;;;13.60;1.00;;;;;;2280862;60;2020;-85
2022/04/23 03:45:40;233011.00;0.78;402.73;0.00;0.00;0.62;;;;;13.20;1.00;;;;;;2280905;60;1156;-85
2022/04/23 03:48:07;568082.00;1.89;979.14;0.00;0.00;0.62;;;;;13.00;1.00;;;;;;2280947;60;1592;-85
2022/04/23 03:50:35;309452.00;1.03;534.17;0.00;0.00;0.62;;;;;13.20;1.00;;;;;;2280892;60;1368;-85
2022/04/23 03:53:02;294469.00;0.98;508.41;0.00;0.00;0.62;;;;;13.10;1.00;;;;;;2281055;60;1141;-85
2022/04/23 03:55:31;367599.00;1.23;634.11;0.00;0.00;0.62;;;;;13.40;1.00;;;;;;2280921;60;1488;-84
2022/04/23 03:58:01;302543.00;1.01;522.29;0.00;0.00;0.62;;;;;13.90;1.00;;;;;;2280916;60;1123;-86
2022/04/23 04:00:29;334560.00;1.12;577.32;0.00;0.00;0.62;;;;;14.00;1.00;;;;;;2280975;60;1474;-84
2022/04/23 04:02:56;606933.00;2.02;1046.19;10907.00;0.04;19.52;;;;;14.00;1.00;;;;;;2280924;60;2015;-85
2022/04/23 04:05:24;243874.00;0.81;421.41;8175.00;0.03;14.79;;;;;14.00;1.00;;;;;;2280902;60;2042;-85
2022/04/23 04:07:52;283084.00;0.94;488.84;0.00;0.00;0.62;;;;;14.10;1.00;;;;;;2280983;60;990;-87
2022/04/23 04:10:21;96490.00;0.32;167.51;0.00;0.00;0.62;;;;;14.30;1.00;;;;;;2280820;60;1642;-86
2022/04/23 04:12:50;166148.00;0.55;287.63;0.00;0.00;0.62;;;;;14.30;1.00;;;;;;2280839;60;1550;-85
2022/04/23 04:15:19;204583.00;0.68;353.81;0.00;0.00;0.62;;;;;14.40;1.00;;;;;;2280928;60;1453;-86
2022/04/23 04:17:51;53047.00;0.18;92.46;0.00;0.00;0.62;;;;;14.80;1.00;;;;;;2280911;60;1067;-84
2022/04/23 04:20:18;11420.00;0.04;20.41;0.00;0.00;0.62;;;;;15.00;1.00;;;;;;2280866;60;2347;-85
2022/04/23 04:22:46;39204.00;0.13;68.51;0.00;0.00;0.62;;;;;14.80;1.00;;;;;;2280834;60;900;-85
2022/04/23 04:25:14;126480.00;0.42;219.26;0.00;0.00;0.62;;;;;14.90;1.00;;;;;;2280769;60;2163;-84
2022/04/23 04:27:42;87685.00;0.29;152.31;0.00;0.00;0.62;;;;;14.90;1.00;;;;;;2280889;60;1142;-85
2022/04/23 04:30:14;0.00;0.00;0.62;0.00;0.00;0.62;;;;;14.60;1.00;;;;;;2280604;60;1387;-85
2022/04/23 04:32:42;228517.00;0.76;395.00;33006.00;0.11;57.79;;;;;14.80;1.00;;;;;;2280813;60;1132;-83
2022/04/23 04:35:10;0.00;0.00;0.62;0.00;0.00;0.62;;;;;15.10;1.00;;;;;;2280848;60;1121;-85
2022/04/23 04:37:37;64025.00;0.21;111.43;0.00;0.00;0.62;;;;;15.10;1.00;;;;;;2280793;60;1420;-83
2022/04/23 04:40:15;71940.00;0.24;125.11;0.00;0.00;0.62;;;;;14.80;1.00;;;;;;2280652;60;1370;-85
2022/04/23 04:42:42;26090.00;0.09;45.81;0.00;0.00;0.62;;;;;14.80;1.00;;;;;;2280843;60;966;-85
2022/04/23 04:45:11;194143.00;0.65;335.84;0.00;0.00;0.62;;;;;14.90;1.00;;;;;;2280739;60;2005;-85
2022/04/23 04:47:38;10177.00;0.03;18.26;0.00;0.00;0.62;;;;;14.90;1.00;;;;;;2280733;60;1563;-86
2022/04/23 04:50:06;59993.00;0.20;104.46;0.00;0.00;0.62;;;;;14.60;1.00;;;;;;2280574;60;1371;-85
2022/04/23 04:52:33;148875.00;0.50;257.87;16130.00;0.05;28.57;;;;;14.70;1.00;;;;;;2280409;60;1223;-85
2022/04/23 04:55:00;233051.00;0.78;402.80;0.00;0.00;0.62;;;;;14.60;1.00;;;;;;2280708;60;1001;-86
2022/04/23 04:57:27;134621.00;0.45;233.30;0.00;0.00;0.62;;;;;14.70;1.00;;;;;;2279943;61;1508;-87
2022/04/23 04:59:54;69224.00;0.23;120.42;0.00;0.00;0.62;;;;;14.30;1.00;;;;;;2280706;60;1282;-85
2022/04/23 05:02:22;25576.00;0.09;44.92;0.00;0.00;0.62;;;;;13.70;1.00;;;;;;2280654;60;2127;-85
2022/04/23 05:04:49;12758.00;0.04;22.73;0.00;0.00;0.62;;;;;13.60;1.00;;;;;;2280672;60;2008;-84
2022/04/23 05:07:16;52874.00;0.18;92.16;0.00;0.00;0.62;;;;;13.60;1.00;;;;;;2280383;60;1469;-86
2022/04/23 05:09:42;139437.00;0.46;241.60;0.00;0.00;0.62;;;;;13.50;1.00;;;;;;2280543;60;1275;-85
2022/04/23 05:12:10;20498.00;0.07;36.13;0.00;0.00;0.62;;;;;13.20;1.00;;;;;;2280469;60;1021;-88
2022/04/23 05:14:37;155878.00;0.52;269.94;0.00;0.00;0.62;;;;;12.70;1.00;;;;;;2279381;61;1106;-85
2022/04/23 05:17:04;38436.00;0.13;67.18;0.00;0.00;0.62;;;;;13.00;1.00;;;;;;2279059;61;1063;-84
2022/04/23 05:19:33;21774.00;0.07;38.34;0.00;0.00;0.62;;;;;13.20;1.00;;;;;;2279390;61;1348;-83
2022/04/23 05:22:00;20636.00;0.07;36.37;0.00;0.00;0.62;;;;;12.90;1.00;;;;;;2279311;61;1552;-83
2022/04/23 05:24:26;0.00;0.00;0.62;0.00;0.00;0.62;;;;;12.70;1.00;;;;;;2279775;60;2300;-83
2022/04/23 05:26:53;212959.00;0.71;368.23;0.00;0.00;0.62;;;;;12.60;1.00;;;;;;2279413;60;1210;-83
2022/04/23 05:29:20;158822.00;0.53;275.01;0.00;0.00;0.62;;;;;12.90;1.00;;;;;;2279043;61;1357;-84
2022/04/23 05:31:47;21890.00;0.07;38.54;0.00;0.00;0.62;;;;;12.80;1.00;;;;;;2278770;61;1086;-84
2022/04/23 05:34:14;0.00;0.00;0.62;0.00;0.00;0.62;;;;;12.70;1.00;;;;;;2279196;61;1128;-83
2022/04/23 05:36:42;126011.00;0.42;218.45;0.00;0.00;0.62;;;;;12.50;1.00;;;;;;2279563;61;1118;-83
2022/04/23 05:39:09;49576.00;0.17;86.45;0.00;0.00;0.62;;;;;12.80;1.00;;;;;;2279148;61;1320;-84
2022/04/23 05:41:36;0.00;0.00;0.62;0.00;0.00;0.62;;;;;12.90;1.00;;;;;;2279184;61;1177;-84
2022/04/23 05:44:03;32897.00;0.11;57.60;0.00;0.00;0.62;;;;;12.80;1.00;;;;;;2278572;61;1996;-84
2022/04/23 05:46:30;0.00;0.00;0.62;0.00;0.00;0.62;;;;;12.60;1.00;;;;;;2278902;61;1279;-83
2022/04/23 05:48:57;25426.00;0.08;44.67;0.00;0.00;0.62;;;;;13.10;1.00;;;;;;2279721;61;1397;-83
2022/04/23 05:51:24;0.00;0.00;0.62;0.00;0.00;0.62;;;;;13.20;1.00;;;;;;2279846;60;1080;-82
2022/04/23 05:53:52;30316.00;0.10;53.13;0.00;0.00;0.62;;;;;13.30;1.00;;;;;;2279150;61;1127;-83
2022/04/23 05:56:19;66705.00;0.22;116.07;0.00;0.00;0.62;;;;;13.30;1.00;;;;;;2279112;61;1154;-83
2022/04/23 05:58:46;0.00;0.00;0.62;0.00;0.00;0.62;;;;;13.60;1.00;;;;;;2278625;61;1376;-83
2022/04/23 06:01:14;0.00;0.00;0.62;0.00;0.00;0.62;;;;;14.00;1.00;;;;;;2278176;61;1118;-83
2022/04/23 06:03:42;277683.00;0.93;479.55;74772.00;0.25;130.01;;;;;14.00;1.00;;;;;;2278708;61;1919;-83
2022/04/23 06:06:09;0.00;0.00;0.62;0.00;0.00;0.62;;;;;14.00;1.00;;;;;;2278065;61;1168;-84
2022/04/23 06:08:36;0.00;0.00;0.62;0.00;0.00;0.62;;;;;14.30;1.00;;;;;;2278056;61;1097;-83
2022/04/23 06:11:04;0.00;0.00;0.62;0.00;0.00;0.62;;;;;14.20;1.00;;;;;;2276651;61;1619;-83
2022/04/23 06:13:31;5674.00;0.02;10.45;0.00;0.00;0.62;;;;;14.70;1.00;;;;;;2277840;61;1121;-84
2022/04/23 06:15:57;0.00;0.00;0.62;0.00;0.00;0.62;;;;;14.80;1.00;;;;;;2277434;61;1088;-84
2022/04/23 06:18:25;106918.00;0.36;185.51;40241.00;0.13;70.31;;;;;15.00;1.00;;;;;;2278309;61;1170;-84
2022/04/23 06:20:52;26460.00;0.09;46.46;0.00;0.00;0.62;;;;;14.90;1.00;;;;;;2277390;61;2008;-84
2022/04/23 06:23:19;0.00;0.00;0.62;0.00;0.00;0.62;;;;;14.80;1.00;;;;;;2277366;61;1492;-83
2022/04/23 06:25:45;11459.00;0.04;20.48;0.00;0.00;0.62;;;;;14.80;1.00;;;;;;2278637;61;2092;-84
2022/04/23 06:28:14;0.00;0.00;0.62;0.00;0.00;0.62;;;;;15.10;1.00;;;;;;2277558;61;1088;-85
2022/04/23 06:30:41;33903.00;0.11;59.34;0.00;0.00;0.62;;;;;14.80;1.00;;;;;;2278927;61;1345;-85
2022/04/23 06:33:07;5968.00;0.02;10.96;0.00;0.00;0.62;;;;;14.80;1.00;;;;;;2278024;61;1095;-85
2022/04/23 06:35:35;0.00;0.00;0.62;0.00;0.00;0.62;;;;;14.80;1.00;;;;;;2277837;61;1095;-82
2022/04/23 06:38:02;4053.00;0.01;7.64;0.00;0.00;0.62;;;;;14.40;1.00;;;;;;2277787;61;1564;-83
2022/04/23 06:40:29;159580.00;0.53;276.32;13024.00;0.04;23.19;;;;;14.30;1.00;;;;;;2277933;61;1259;-84
2022/04/23 06:42:56;29697.00;0.10;52.06;0.00;0.00;0.62;;;;;14.70;1.00;;;;;;2278472;61;1139;-85
2022/04/23 06:45:24;141332.00;0.47;244.87;0.00;0.00;0.62;;;;;15.20;1.00;;;;;;2279721;60;2005;-85
2022/04/23 06:48:02;41623.00;0.14;72.70;0.00;0.00;0.62;;;;;15.40;1.00;;;;;;2277719;61;1441;-83
2022/04/23 06:50:29;0.00;0.00;0.62;0.00;0.00;0.62;;;;;15.50;1.00;;;;;;2278122;61;1352;-85
2022/04/23 06:52:56;14738.00;0.05;26.16;0.00;0.00;0.62;;;;;15.80;1.00;;;;;;2276825;61;1700;-83
2022/04/23 06:55:23;0.00;0.00;0.62;0.00;0.00;0.62;;;;;14.90;1.00;;;;;;2277254;61;1103;-83
2022/04/23 06:57:50;18176.00;0.06;32.11;0.00;0.00;0.62;;;;;14.30;1.00;;;;;;2277004;61;1467;-83
2022/04/23 07:00:17;0.00;0.00;0.62;0.00;0.00;0.62;;;;;14.00;1.00;;;;;;2277553;61;1279;-83
2022/04/23 07:02:45;56457.00;0.19;98.35;0.00;0.00;0.62;;;;;14.10;1.00;;;;;;2277567;61;1643;-81
2022/04/23 07:05:12;12599.00;0.04;22.45;0.00;0.00;0.62;;;;;14.70;1.00;;;;;;2277207;61;2004;-83
2022/04/23 07:07:39;0.00;0.00;0.62;0.00;0.00;0.62;;;;;15.10;1.00;;;;;;2277417;61;1086;-83
2022/04/23 07:10:07;8668.00;0.03;15.64;0.00;0.00;0.62;;;;;15.20;1.00;;;;;;2276846;61;1292;-84
2022/04/23 07:12:34;42668.00;0.14;74.50;0.00;0.00;0.62;;;;;15.20;1.00;;;;;;2277108;61;1132;-84
2022/04/23 07:15:01;23376.00;0.08;41.12;0.00;0.00;0.62;;;;;15.20;1.00;;;;;;2277244;61;1025;-83
2022/04/23 07:17:28;209738.00;0.70;362.68;0.00;0.00;0.62;;;;;15.40;1.00;;;;;;2276488;61;1139;-83
2022/04/23 07:19:57;9293.00;0.03;16.72;0.00;0.00;0.62;;;;;15.20;1.00;;;;;;2279830;60;1379;-86
2022/04/23 07:22:25;261312.00;0.87;451.40;0.00;0.00;0.62;;;;;15.30;1.00;;;;;;2280292;60;1538;-84
2022/04/23 07:24:54;145504.00;0.49;252.06;0.00;0.00;0.62;;;;;15.70;1.00;;;;;;2280327;60;1935;-85
2022/04/23 07:27:21;866820.00;2.89;1497.92;60996.00;0.20;106.20;;;;;15.80;1.00;;;;;;2280291;60;1638;-87
2022/04/23 07:29:52;642605.00;2.14;1107.84;41555.00;0.14;72.58;;;;;15.60;1.00;;;;;;2280385;60;1763;-86
2022/04/23 07:32:21;558964.00;1.86;963.41;35599.00;0.12;62.27;;;;;15.80;1.00;;;;;;2280457;60;1547;-86
2022/04/23 07:37:39;183548.00;0.61;317.60;12743.00;0.04;22.70;;;;;16.30;1.00;;;;;;2280346;60;650;-87
2022/04/23 07:40:10;1442211.00;4.81;2534.84;193273.00;0.64;334.34;;;;;16.40;1.00;;;;;;2280194;60;1382;-87
2022/04/23 07:42:40;713345.00;2.38;1230.39;9577.00;0.03;17.22;;;;;15.90;1.00;;;;;;2280170;60;1557;-86
2022/04/23 07:45:13;1267936.00;4.23;2213.54;95733.00;0.32;166.21;;;;;15.80;1.00;;;;;;2280044;60;1927;-86
2022/04/23 07:47:44;1202549.00;4.01;2094.83;46511.00;0.16;81.15;;;;;15.90;1.00;;;;;;2280089;60;918;-87
2022/04/23 07:50:16;888712.00;2.96;1536.30;47302.00;0.16;82.52;;;;;16.00;1.00;;;;;;2280206;60;1688;-86
2022/04/23 07:52:53;1025095.00;3.42;1776.97;60559.00;0.20;105.44;;;;;16.40;1.00;;;;;;2280243;60;1548;-85
2022/04/23 07:55:24;256163.00;0.85;442.55;0.00;0.00;0.62;;;;;16.40;1.00;;;;;;2280239;60;975;-85
2022/04/23 07:57:54;218711.00;0.73;378.13;0.00;0.00;0.62;;;;;16.60;1.00;;;;;;2280410;60;968;-86
2022/04/23 08:00:24;180023.00;0.60;311.53;0.00;0.00;0.62;;;;;17.30;1.00;;;;;;2280021;60;1269;-84
2022/04/23 08:02:57;253817.00;0.85;438.52;0.00;0.00;0.62;;;;;17.20;1.00;;;;;;2280230;60;952;-83
2022/04/23 08:05:26;71573.00;0.24;124.48;0.00;0.00;0.62;;;;;17.20;1.00;;;;;;2280784;60;1913;-86
2022/04/23 08:08:02;202945.00;0.68;350.99;0.00;0.00;0.62;;;;;17.10;1.00;;;;;;2280795;60;1693;-87
2022/04/23 08:10:31;163321.00;0.54;282.76;0.00;0.00;0.62;;;;;17.10;1.00;;;;;;2280795;60;1598;-84
2022/04/23 08:13:09;260979.00;0.87;450.83;0.00;0.00;0.62;;;;;17.30;1.00;;;;;;2280812;60;1490;-84
2022/04/23 08:15:43;37177.00;0.12;65.00;0.00;0.00;0.62;;;;;16.80;1.00;;;;;;2280904;60;1502;-85
2022/04/23 08:18:12;279243.00;0.93;482.24;0.00;0.00;0.62;;;;;16.90;1.00;;;;;;2280984;60;1626;-86
2022/04/23 08:20:41;185320.00;0.62;320.65;0.00;0.00;0.62;;;;;17.10;1.00;;;;;;2280968;60;1291;-86
2022/04/23 08:23:15;166062.00;0.55;287.48;0.00;0.00;0.62;;;;;16.70;1.00;;;;;;2280833;60;1421;-86
2022/04/23 08:25:45;0.00;0.00;0.62;0.00;0.00;0.62;;;;;16.50;1.00;;;;;;2280978;60;1992;-85
2022/04/23 08:31:03;285538.00;0.95;493.06;0.00;0.00;0.62;;;;;16.40;1.00;;;;;;2280852;60;1454;-86
2022/04/23 08:33:57;180389.00;0.60;312.16;0.00;0.00;0.62;;;;;16.60;1.00;;;;;;2280743;60;1664;-84
2022/04/23 08:36:22;61279.00;0.20;106.69;0.00;0.00;0.62;;;;;16.70;1.00;;;;;;2280707;60;998;-86
2022/04/23 08:38:56;188980.00;0.63;326.95;0.00;0.00;0.62;;;;;17.00;1.00;;;;;;2280795;60;1521;-86
2022/04/23 08:41:31;154972.00;0.52;268.38;0.00;0.00;0.62;;;;;16.90;1.00;;;;;;2280778;60;1487;-86
2022/04/23 08:44:05;275529.00;0.92;475.85;0.00;0.00;0.62;;;;;17.70;1.00;;;;;;2280675;60;1460;-87
2022/04/23 08:46:40;241930.00;0.81;418.07;60354.00;0.20;105.09;;;;;17.80;1.00;;;;;;2280698;60;2012;-86
2022/04/23 08:49:16;188287.00;0.63;325.76;0.00;0.00;0.62;;;;;17.80;1.00;;;;;;2280742;60;1472;-86
2022/04/23 08:51:55;122837.00;0.41;212.98;0.00;0.00;0.62;;;;;18.20;1.00;;;;;;2280684;60;1244;-85
2022/04/23 08:54:25;162614.00;0.54;281.54;0.00;0.00;0.62;;;;;17.60;1.00;;;;;;2280760;60;1547;-85
2022/04/23 08:56:52;145323.00;0.48;251.75;0.00;0.00;0.62;;;;;16.90;1.00;;;;;;2280610;60;1552;-85
2022/04/23 08:59:22;177839.00;0.59;307.77;0.00;0.00;0.62;;;;;16.40;1.00;;;;;;2280466;60;1369;-85
2022/04/23 09:01:52;207883.00;0.69;359.49;0.00;0.00;0.62;;;;;16.90;1.00;;;;;;2280710;60;1537;-85
2022/04/23 09:04:19;230001.00;0.77;397.55;0.00;0.00;0.62;;;;;17.20;1.00;;;;;;2280584;60;1464;-86
2022/04/23 09:06:51;234754.00;0.78;405.73;0.00;0.00;0.62;;;;;17.40;1.00;;;;;;2280604;60;1950;-85
2022/04/23 09:09:23;171054.00;0.57;296.08;0.00;0.00;0.62;;;;;17.20;1.00;;;;;;2280711;60;1234;-86
2022/04/23 09:11:56;244384.00;0.81;422.29;57262.00;0.19;99.74;;;;;16.90;1.00;;;;;;2280800;60;1455;-86
2022/04/23 09:14:29;95757.00;0.32;166.25;0.00;0.00;0.62;;;;;17.40;1.00;;;;;;2280688;60;1402;-86
2022/04/23 09:25:31;82741.00;0.28;143.77;0.00;0.00;0.62;;;;;18.10;1.00;;;;;;2280720;60;1982;-85
2022/04/23 09:28:15;137285.00;0.46;237.89;0.00;0.00;0.62;;;;;18.00;1.00;;;;;;2280615;60;1434;-85
2022/04/23 09:30:44;250382.00;0.83;432.61;0.00;0.00;0.62;;;;;18.00;1.00;;;;;;2280617;60;1612;-85
2022/04/23 09:33:12;304852.00;1.02;526.26;42498.00;0.14;74.21;;;;;18.30;1.00;;;;;;2280636;60;1111;-85
2022/04/23 09:35:56;360423.00;1.20;621.78;24462.00;0.08;43.00;;;;;18.50;1.00;;;;;;2280731;60;1172;-86
2022/04/23 09:38:33;371756.00;1.24;641.26;87735.00;0.29;152.40;;;;;18.90;1.00;;;;;;2280646;60;1560;-87
2022/04/23 09:41:18;360861.00;1.20;622.53;81982.00;0.27;142.46;;;;;19.00;1.00;;;;;;2280573;60;1449;-87
2022/04/23 09:44:06;184878.00;0.62;319.89;74931.00;0.25;130.28;;;;;19.20;1.00;;;;;;2280545;60;1430;-86
2022/04/23 09:46:46;438452.00;1.46;755.92;83538.00;0.28;145.15;;;;;19.00;1.00;;;;;;2280557;60;2002;-87
2022/04/23 09:49:19;397800.00;1.33;686.02;93442.00;0.31;162.25;;;;;19.40;1.00;;;;;;2280498;60;2149;-86
2022/04/23 09:52:00;506535.00;1.69;873.08;45455.00;0.15;79.33;;;;;19.40;1.00;;;;;;2280513;60;1490;-86
2022/04/23 09:54:30;693323.00;2.31;1195.66;184483.00;0.61;319.21;;;;;18.90;1.00;;;;;;2280491;60;1380;-85
2022/04/23 09:57:00;679106.00;2.26;1171.02;60067.00;0.20;104.59;;;;;19.10;1.00;;;;;;2280651;60;1469;-85
2022/04/23 09:59:29;507897.00;1.69;875.42;83915.00;0.28;145.80;;;;;19.40;1.00;;;;;;2280696;60;1381;-86
2022/04/23 10:02:07;426893.00;1.42;736.04;70198.00;0.23;122.10;;;;;19.50;1.00;;;;;;2280407;60;1558;-84
2022/04/23 10:04:40;788527.00;2.63;1361.12;147798.00;0.49;256.01;;;;;18.30;1.00;;;;;;2280508;60;1586;-85
2022/04/23 10:07:13;123777440.00;412.59;76827432.00;123162592.00;410.54;75687144.00;;;;;17.10;1.00;;;;;;2280484;60;1940;-86
2022/04/23 10:09:48;622047.00;2.07;1072.30;80435.00;0.27;139.79;;;;;16.90;1.00;;;;;;2280305;60;1475;-86
2022/04/23 10:12:23;1004575.00;3.35;1740.58;117677.00;0.39;204.08;;;;;16.90;1.00;;;;;;2280581;60;1008;-86
2022/04/23 10:14:57;1384737.00;4.62;2428.05;184240.00;0.61;318.79;;;;;16.80;1.00;;;;;;2280599;60;1120;-86
2022/04/23 10:17:30;1381553.00;4.61;2422.15;129181.00;0.43;223.92;;;;;17.10;1.00;;;;;;2280553;60;1447;-89
2022/04/23 10:20:01;1044546.00;3.48;1811.53;90129.00;0.30;156.53;;;;;17.40;1.00;;;;;;2280439;60;1376;-86
2022/04/23 10:22:36;1158872.00;3.86;2016.03;59105.00;0.20;102.93;;;;;17.80;1.00;;;;;;2280628;60;2149;-84